Details From YEML - Emerald
To YBRK - Rockhampton
Flight Number -
Tags decoded
Created
Modified
Stats Distance 128 nm / 237 km
Max Altitude 0 ft / 0 m
Waypoints 3
Social Downloads 1
Likes 0
Share VATSIM

Download

Looking for another format? Having issues loading an existing format? Contact us
Advertisement - Login to hide

Notes

Requested: YEML EML YBRK

Route

YEML EML YBRK

ID Type Via Altitude (ft/m) Position (lat/lon) Dist (leg/tot) Name
O YEML APT - 0 / 0 -23.56830 / 148.17800 - / 0 nm Emerald
EML NDB - 0 / 0 -23.56750 / 148.17100 0 / 0 nm EMERALD
O YBRK APT - 0 / 0 -23.37880 / 150.47300 127 / 127 nm Rockhampton

Altitude Profile

Advertisement - Login to hide

YEML

Details ICAO YEML (EMD)
Name Emerald
Region Australia
Timezone Australia/Brisbane (UTC+10.0)
Stats Elevation 623 ft / 190 m (AMSL)
Location -23.568300° 148.178000°
Runways 2
Magnetic Variation 8.596° E

METAR

YEML 052100Z AUTO 04007KT 9999 // NCD 28/21 Q1011

Decode

TAF

Not found

Departure Runways

ID Width Length Bearing (true/mag) Surface Threshold Overrun Markings Lighting
06 98 ft / 30 m 6,224 ft / 1,897 m 70.40° / 61.81° ASPHALT 0 ft / 0 m 98 ft / 30 m APP EDGE THRESHOLD
15 62 ft / 19 m 2,312 ft / 705 m 151.69° / 143.09° ASPHALT 0 ft / 0 m 0 ft / 0 m VISUAL
24 98 ft / 30 m 6,224 ft / 1,897 m 250.40° / 241.80° ASPHALT 0 ft / 0 m 102 ft / 31 m APP EDGE THRESHOLD
33 62 ft / 19 m 2,312 ft / 705 m 331.69° / 323.09° ASPHALT 0 ft / 0 m 0 ft / 0 m NONE

YBRK

Details ICAO YBRK (ROK)
Name Rockhampton
Region Australia
Timezone Australia/Brisbane (UTC+10.0)
Stats Elevation 34 ft / 10 m (AMSL)
Location -23.378800° 150.473000°
Runways 2
Magnetic Variation 9.191° E

METAR

YBRK 052200Z AUTO 35011KT 9999 // BKN033 30/21 Q1012

Decode

TAF

TAF TAF AMD YBRK 052041Z 0520/0618 35005KT 9999 SCT025 FM060000 01014KT 9999 SCT035 FM061000 33008KT 9999 SCT015 PROB30 TEMPO 0603/0610 VRB25G40KT 2000 TSRAGR BKN020 SCT050CB

Decode

Destination Runways

ID Width Length Bearing (true/mag) Surface Threshold Overrun Markings Lighting
04 102 ft / 31 m 5,395 ft / 1,644 m 52.34° / 43.15° ASPHALT 0 ft / 0 m 20 ft / 6 m APP EDGE THRESHOLD
15 148 ft / 45 m 8,649 ft / 2,636 m 157.80° / 148.61° ASPHALT 0 ft / 0 m 0 ft / 0 m APP EDGE THRESHOLD
22 102 ft / 31 m 5,395 ft / 1,644 m 232.34° / 223.14° ASPHALT 0 ft / 0 m 0 ft / 0 m APP EDGE THRESHOLD
33 148 ft / 45 m 8,649 ft / 2,636 m 337.80° / 328.61° ASPHALT 0 ft / 0 m 0 ft / 0 m APP EDGE THRESHOLD

Popular Alternatives